createdAt,value
2024-05-09T00:06:56.739Z,98
2024-05-09T00:32:04.782Z,98
2024-05-09T00:42:07.516Z,96
2024-05-09T00:52:10.548Z,96
2024-05-09T00:57:11.730Z,96
2024-05-09T01:22:20.057Z,96
2024-05-09T01:27:21.541Z,96
2024-05-09T01:42:33.340Z,97
2024-05-09T01:52:36.231Z,96
2024-05-09T01:57:37.892Z,97
2024-05-09T02:17:45.536Z,97
2024-05-09T02:27:48.294Z,97
2024-05-09T02:47:56.543Z,97
2024-05-09T02:52:57.612Z,97
2024-05-09T03:03:00.748Z,96
2024-05-09T03:13:03.154Z,96
2024-05-09T03:38:10.969Z,95
2024-05-09T03:43:12.617Z,95
2024-05-09T03:48:14.351Z,94
2024-05-09T04:18:24.816Z,96
2024-05-09T04:23:26.365Z,97
2024-05-09T04:28:28.043Z,97
2024-05-09T04:33:29.747Z,96
2024-05-09T04:43:32.080Z,96
2024-05-09T04:53:35.621Z,94
2024-05-09T05:03:39.476Z,94
2024-05-09T05:08:40.328Z,96
2024-05-09T05:13:41.823Z,96
2024-05-09T05:33:47.434Z,96
2024-05-09T05:43:51.034Z,90
2024-05-09T05:53:54.235Z,91
2024-05-09T05:58:55.753Z,88
2024-05-09T06:03:57.138Z,90
2024-05-09T06:08:58.512Z,88
2024-05-09T06:19:02.072Z,85
2024-05-09T06:24:06.193Z,82
2024-05-09T06:34:06.555Z,79
2024-05-09T06:44:09.784Z,72
2024-05-09T07:04:15.918Z,61
2024-05-09T07:19:19.689Z,56
2024-05-09T07:24:20.935Z,56
2024-05-09T07:29:23.109Z,55
2024-05-09T07:39:26.825Z,54
2024-05-09T07:59:37.077Z,52
2024-05-09T08:04:35.314Z,53
2024-05-09T08:14:39.106Z,56
2024-05-09T08:19:40.629Z,53
2024-05-09T08:29:43.497Z,55
2024-05-09T08:34:44.896Z,54
2024-05-09T08:44:48.460Z,50
2024-05-09T08:49:49.757Z,48
2024-05-09T08:54:51.892Z,49
2024-05-09T09:04:54.945Z,49
2024-05-09T09:25:03.004Z,48
2024-05-09T09:30:05.473Z,49
2024-05-09T09:40:08.904Z,49
2024-05-09T09:45:09.406Z,49
2024-05-09T09:50:12.184Z,49
2024-05-09T10:00:17.382Z,52
2024-05-09T10:05:15.726Z,52
2024-05-09T10:10:22.818Z,51
2024-05-09T10:15:18.702Z,51
2024-05-09T10:20:21.768Z,50
2024-05-09T10:25:22.820Z,52
2024-05-09T10:30:29.458Z,52
2024-05-09T10:35:26.734Z,52
2024-05-09T10:40:30.960Z,53
2024-05-09T11:00:36.082Z,49
2024-05-09T11:05:36.665Z,51
2024-05-09T11:10:38.555Z,52
2024-05-09T11:15:39.846Z,50
2024-05-09T11:25:42.779Z,51
2024-05-09T12:05:55.997Z,45
2024-05-09T12:15:59.571Z,46
2024-05-09T12:21:00.871Z,45
2024-05-09T12:31:04.306Z,43
2024-05-09T12:36:06.159Z,43
2024-05-09T12:41:08.337Z,41
2024-05-09T12:46:09.858Z,41
2024-05-09T12:51:11.762Z,42
2024-05-09T13:16:21.450Z,46
2024-05-09T13:21:22.810Z,45
2024-05-09T13:26:24.809Z,45
2024-05-09T13:36:28.151Z,44
2024-05-09T13:41:29.283Z,45
2024-05-09T13:46:31.176Z,44
2024-05-09T13:51:32.645Z,45
2024-05-09T13:56:34.338Z,45
2024-05-09T14:01:35.871Z,44
2024-05-09T14:11:39.988Z,45
2024-05-09T14:16:41.366Z,44
2024-05-09T14:21:42.557Z,44
2024-05-09T14:41:49.443Z,43
2024-05-09T14:46:51.391Z,42
2024-05-09T14:51:53.355Z,42
2024-05-09T15:01:56.644Z,43
2024-05-09T15:11:59.564Z,43
2024-05-09T15:22:02.746Z,44
2024-05-09T15:27:04.213Z,44
2024-05-09T15:32:05.836Z,43
2024-05-09T15:47:10.201Z,47
2024-05-09T15:52:11.720Z,47
2024-05-09T15:57:13.620Z,46
2024-05-09T16:07:16.732Z,46
2024-05-09T16:12:18.812Z,45
2024-05-09T16:17:20.272Z,45
2024-05-09T16:32:25.134Z,46
2024-05-09T16:37:29.399Z,44
2024-05-09T16:42:28.496Z,44
2024-05-09T16:47:29.936Z,45
2024-05-09T16:52:31.653Z,44
2024-05-09T16:57:32.884Z,44
2024-05-09T17:02:34.346Z,44
2024-05-09T17:07:35.804Z,42
2024-05-09T17:12:37.859Z,43
2024-05-09T17:17:39.962Z,45
2024-05-09T17:22:41.633Z,46
2024-05-09T17:27:43.233Z,46
2024-05-09T17:32:44.998Z,46
2024-05-09T17:37:46.635Z,46
2024-05-09T17:42:47.928Z,47
2024-05-09T17:47:49.631Z,47
2024-05-09T17:52:51.287Z,48
2024-05-09T17:57:52.999Z,48
2024-05-09T18:02:54.319Z,48
2024-05-09T18:07:56.441Z,49
2024-05-09T18:12:58.619Z,50
2024-05-09T18:18:00.357Z,51
2024-05-09T18:23:08.143Z,52
2024-05-09T18:33:11.443Z,53
2024-05-09T18:43:14.332Z,55
2024-05-09T18:58:19.332Z,57
2024-05-09T19:03:20.754Z,58
2024-05-09T19:13:23.374Z,58
2024-05-09T19:23:26.622Z,61
2024-05-09T19:28:27.708Z,61
2024-05-09T19:43:35.813Z,64
2024-05-09T19:58:37.072Z,64
2024-05-09T20:03:38.851Z,66
2024-05-09T20:08:40.678Z,66
2024-05-09T20:13:42.340Z,66
2024-05-09T20:18:43.664Z,66
2024-05-09T20:23:45.303Z,67
2024-05-09T20:28:46.630Z,68
2024-05-09T20:33:48.462Z,69
2024-05-09T20:38:49.850Z,69
2024-05-09T20:43:51.732Z,69
2024-05-09T20:48:53.806Z,69
2024-05-09T20:53:55.316Z,70
2024-05-09T20:58:56.795Z,70
2024-05-09T21:03:59.024Z,69
2024-05-09T21:09:00.246Z,70
2024-05-09T21:14:01.583Z,71
2024-05-09T21:19:03.427Z,72
2024-05-09T21:24:04.778Z,72
2024-05-09T21:29:06.295Z,72
2024-05-09T21:34:07.963Z,73
2024-05-09T21:39:09.761Z,74
2024-05-09T21:44:11.854Z,74
2024-05-09T21:49:13.242Z,75
2024-05-09T21:54:15.492Z,76
2024-05-09T21:59:17.327Z,76
2024-05-09T22:04:19.429Z,77
2024-05-09T22:09:21.035Z,77
2024-05-09T22:14:22.769Z,78
2024-05-09T22:19:24.356Z,78
2024-05-09T22:24:25.744Z,78
2024-05-09T22:29:27.515Z,78
2024-05-09T22:34:29.230Z,77
2024-05-09T22:39:31.050Z,78
2024-05-09T22:44:33.026Z,78
2024-05-09T22:49:34.694Z,80
2024-05-09T22:54:35.862Z,78
2024-05-09T22:59:37.035Z,79
2024-05-09T23:04:38.479Z,79
2024-05-09T23:09:40.055Z,80
2024-05-09T23:14:41.309Z,80
2024-05-09T23:19:42.981Z,79
2024-05-09T23:24:44.237Z,80
2024-05-09T23:29:45.814Z,80
2024-05-09T23:34:47.523Z,81
2024-05-09T23:39:49.119Z,80
2024-05-09T23:44:50.445Z,80
2024-05-09T23:49:52.086Z,81
2024-05-09T23:54:53.974Z,81
2024-05-09T23:59:55.423Z,81
